»·PEaware :: N72C KOLS-KPHX

N72C :: KOLS-KPHX

FLIGHT INFORMATION

Flight Status: Arrived
Operator: Privately registered:
United States
More flights under this callsign
Pilot: Charles C. (26995)
Aircraft: SOCATA TBM-900
(TBM9)
More flights by this aircraft type
Origin: KOLS Nogales Intl
United States
Destination: KPHX Phoenix Sky Harbor Intl
United States
More flights between these airports :: More routes between these airports
Route:
File this flight plan on PilotEdge
Remarks:
Altitude:
(Current/Filed)
16,500ft
Speed:
(Current/Filed)
280kts
Departed: 29-Sep-20 07:49 AM
Arrived: 29-Sep-20 08:27 AM
Distance/Time
Traveled:
135nm/0:38
Distance/Time
To Go:
Arrived

Flight Plot

Page will automatically refresh every two minutes.

Flight plan parsing failed; only flown route is shown


Map Options




Map Legend


Flown Route
Filed Route
Departure Airport
Arrival Airport
Navaid (VOR, NDB)
Fix

Horizontal Profiles

Position Reports

Time Latitude Longitude Heading Altitude Ground
Speed
29-Sep-20 07:37 31.417701 -110.850701 133 3882ft 0kts
29-Sep-20 07:38 31.417701 -110.850702 133 3882ft 0kts
29-Sep-20 07:39 31.417701 -110.850702 133 3882ft 0kts
29-Sep-20 07:40 31.417701 -110.850702 133 3882ft 0kts
29-Sep-20 07:41 31.417701 -110.850702 133 3882ft 0kts
29-Sep-20 07:42 31.417701 -110.850702 133 3882ft 0kts
29-Sep-20 07:43 31.417701 -110.850701 133 3882ft 0kts
29-Sep-20 07:44 31.417902 -110.850299 49 3885ft 9kts
29-Sep-20 07:45 31.420424 -110.846356 46 3906ft 20kts
29-Sep-20 07:46 31.424858 -110.840962 44 3938ft 26kts
29-Sep-20 07:47 31.424809 -110.839999 129 3943ft 1kts
29-Sep-20 07:48 31.423522 -110.840830 224 3936ft 43kts
29-Sep-20 07:49 31.399277 -110.869302 223 5149ft 148kts
29-Sep-20 07:50 31.407932 -110.900542 358 7143ft 154kts
29-Sep-20 07:51 31.450541 -110.918239 336 9022ft 169kts
29-Sep-20 07:52 31.493915 -110.941605 337 10849ft 174kts
29-Sep-20 07:53 31.538313 -110.965531 337 12515ft 178kts
29-Sep-20 07:54 31.583592 -110.989951 337 14049ft 181kts
29-Sep-20 07:55 31.629434 -111.014701 337 15443ft 183kts
29-Sep-20 07:56 31.676914 -111.040340 336 16375ft 203kts
29-Sep-20 07:57 31.732280 -111.070290 336 16717ft 242kts
29-Sep-20 07:58 31.797394 -111.105602 335 16668ft 265kts
29-Sep-20 07:59 31.865100 -111.142388 335 16636ft 268kts
29-Sep-20 08:00 31.932886 -111.179253 335 16636ft 269kts
29-Sep-20 08:01 32.000820 -111.216253 335 16635ft 269kts
29-Sep-20 08:02 32.068778 -111.253327 335 16635ft 269kts
29-Sep-20 08:03 32.136756 -111.290471 335 16637ft 269kts
29-Sep-20 08:04 32.204767 -111.327696 335 16629ft 269kts
29-Sep-20 08:05 32.272874 -111.365037 335 16613ft 270kts
29-Sep-20 08:06 32.341001 -111.402450 335 16600ft 269kts
29-Sep-20 08:07 32.409123 -111.439923 335 16600ft 269kts
29-Sep-20 08:08 32.476851 -111.477242 335 16600ft 269kts
29-Sep-20 08:09 32.544915 -111.514808 335 16596ft 269kts
29-Sep-20 08:10 32.612704 -111.552286 335 16589ft 269kts
29-Sep-20 08:11 32.680805 -111.589999 335 16582ft 269kts
29-Sep-20 08:12 32.748670 -111.627644 335 16542ft 271kts
29-Sep-20 08:13 32.816179 -111.665165 334 16475ft 258kts
29-Sep-20 08:14 32.883088 -111.702388 334 15515ft 269kts
29-Sep-20 08:15 32.950422 -111.739922 334 14069ft 268kts
29-Sep-20 08:16 33.018770 -111.778115 334 11256ft 270kts
29-Sep-20 08:17 33.083640 -111.814425 334 9834ft 228kts
29-Sep-20 08:18 33.138666 -111.845223 334 9747ft 214kts
29-Sep-20 08:19 33.195623 -111.877173 334 8445ft 238kts
29-Sep-20 08:20 33.252556 -111.909414 325 7966ft 222kts
29-Sep-20 08:21 33.290867 -111.966614 333 6893ft 223kts
29-Sep-20 08:22 33.347120 -111.999255 335 4256ft 216kts
29-Sep-20 08:23 33.384832 -112.036491 304 2872ft 164kts
29-Sep-20 08:24 33.418288 -112.040371 21 1649ft 103kts
29-Sep-20 08:25 33.428837 -112.020140 91 1112ft 45kts
29-Sep-20 08:26 33.430290 -112.015994 40 1115ft 15kts
29-Sep-20 08:27 33.431955 -112.012612 34 1120ft 0kts
29-Sep-20 08:28 33.431959 -112.012609 35 1120ft 1kts
29-Sep-20 08:29 33.433566 -112.010090 0 1122ft 14kts
29-Sep-20 08:30 33.434468 -112.009474 208 1123ft 0kts
29-Sep-20 08:31 33.434468 -112.009474 208 1123ft 0kts
29-Sep-20 08:32 33.434468 -112.009474 208 1123ft 0kts
29-Sep-20 08:33 33.434468 -112.009474 208 1123ft 0kts
29-Sep-20 08:34 33.434468 -112.009474 208 1123ft 0kts
29-Sep-20 08:35 33.434483 -112.009485 185 1123ft 1kts
29-Sep-20 08:36 33.434528 -112.009482 177 1123ft 0kts
29-Sep-20 08:37 33.434528 -112.009482 177 1123ft 0kts
29-Sep-20 08:38 33.434528 -112.009482 177 1123ft 0kts
29-Sep-20 08:39 33.434528 -112.009482 177 1123ft 0kts
29-Sep-20 08:40 33.434528 -112.009482 177 1123ft 0kts

Navigation Log

Ident Type
Flight plan parsing failed, navigation log unavailable